Alaska, Minnesota
Current Conditions -  °F | °C
As of 12:12 PM on Friday 28 Nov 2014 (Local Time) from KBJI Reporting Station
Light Snow Light Snow  
Wind Chill: -17°   Ceiling: Unl
Heat Index: -11°   Visibility: 7mi
Dew Point: -14°   Wind: 7mph
Humidity: 79%   Direction: 110°ESE
Pressure: 29.87"   Gusts: NA
Location:  47.7369°N, 94.9947°W
Report Text: KBJI 281812Z AUTO 11006KT 7SM -SN SCT014 M11/M14 A2987 RMK AO2 T11131143
Loading
Personal Weather Stations






























Interactive Weather Map New forecast layout! Learn more

10-Day Weather Forecast

Advertisements
Track Severe Weather on mobile